createdAt,value
2022-08-05T00:00:16.251Z,100654.13
2022-08-05T00:03:15.546Z,100657.55
2022-08-05T00:06:29.205Z,100654.64
2022-08-05T00:09:19.663Z,100657.67
2022-08-05T00:12:09.360Z,100659.70
2022-08-05T00:15:54.436Z,100654.85
2022-08-05T00:18:21.505Z,100656.55
2022-08-05T00:21:12.488Z,100654.13
2022-08-05T00:24:10.779Z,100657.26
2022-08-05T00:27:00.679Z,100661.16
2022-08-05T00:29:53.737Z,100653.16
2022-08-05T00:32:45.759Z,100649.88
2022-08-05T00:35:36.044Z,100652.27
2022-08-05T00:38:39.144Z,100655.80
2022-08-05T00:41:51.675Z,100654.95
2022-08-05T00:44:40.204Z,100653.30
2022-08-05T00:47:56.213Z,100651.58
2022-08-05T00:50:46.131Z,100652.34
2022-08-05T00:54:01.188Z,100652.48
2022-08-05T00:56:47.089Z,100651.52
2022-08-05T00:59:44.350Z,100649.06
2022-08-05T01:02:33.362Z,100649.10
2022-08-05T01:05:21.321Z,100645.60
2022-08-05T01:08:40.291Z,100642.94
2022-08-05T01:11:36.712Z,100637.91
2022-08-05T01:14:33.751Z,100637.21
2022-08-05T01:17:27.298Z,100636.27
2022-08-05T01:20:29.773Z,100633.66
2022-08-05T01:23:34.747Z,100634.62
2022-08-05T01:26:39.975Z,100635.79
2022-08-05T01:29:38.991Z,100627.56
2022-08-05T01:32:35.865Z,100630.98
2022-08-05T01:35:51.318Z,100627.27
2022-08-05T01:38:42.771Z,100626.19
2022-08-05T01:41:35.360Z,100624.41
2022-08-05T01:44:34.221Z,100628.35
2022-08-05T01:47:24.247Z,100626.38
2022-08-05T01:50:28.530Z,100627.45
2022-08-05T01:53:55.053Z,100628.93
2022-08-05T01:58:12.462Z,100628.21
2022-08-05T01:59:47.226Z,100621.74
2022-08-05T02:02:38.944Z,100621.89
2022-08-05T02:05:43.214Z,100621.95
2022-08-05T02:08:40.850Z,100617.92
2022-08-05T02:11:52.268Z,100613.44
2022-08-05T02:14:47.929Z,100609.52
2022-08-05T02:18:30.688Z,100612.20
2022-08-05T02:21:02.496Z,100604.38
2022-08-05T02:23:56.299Z,100600.04
2022-08-05T02:26:55.003Z,100599.79
2022-08-05T02:29:59.599Z,100598.52
2022-08-05T02:32:55.582Z,100596.77
2022-08-05T02:35:56.331Z,100597.11
2022-08-05T02:38:38.799Z,100596.50
2022-08-05T02:41:43.380Z,100593.45
2022-08-05T02:44:39.545Z,100595.09
2022-08-05T02:47:58.674Z,100594.73
2022-08-05T02:50:43.557Z,100591.67
2022-08-05T02:53:39.267Z,100590.20
2022-08-05T02:56:29.079Z,100587.80
2022-08-05T02:59:22.398Z,100584.76
2022-08-05T03:02:19.789Z,100581.84
2022-08-05T03:06:55.284Z,100582.73
2022-08-05T03:08:37.345Z,100581.03
2022-08-05T03:11:57.228Z,100577.27
2022-08-05T03:14:46.122Z,100574.48
2022-08-05T03:17:41.484Z,100572.96
2022-08-05T03:20:31.264Z,100569.48
2022-08-05T03:23:24.202Z,100570.64
2022-08-05T03:26:31.568Z,100569.84
2022-08-05T03:29:21.738Z,100567.09
2022-08-05T03:32:15.386Z,100569.54
2022-08-05T03:35:08.899Z,100566.05
2022-08-05T03:37:58.467Z,100568.11
2022-08-05T03:40:48.808Z,100570.33
2022-08-05T03:44:09.269Z,100572.71
2022-08-05T03:46:46.746Z,100569.99
2022-08-05T03:49:51.660Z,100569.37
2022-08-05T03:55:52.466Z,100570.98
2022-08-05T03:56:17.234Z,100570.00
2022-08-05T03:59:20.485Z,100571.53
2022-08-05T04:02:17.436Z,100570.59
2022-08-05T04:05:23.079Z,100564.13
2022-08-05T04:08:29.954Z,100561.83
2022-08-05T04:11:21.853Z,100562.79
2022-08-05T04:14:18.120Z,100567.57
2022-08-05T04:17:09.616Z,100566.17
2022-08-05T04:20:00.207Z,100568.98
2022-08-05T04:22:53.726Z,100571.11
2022-08-05T04:25:57.129Z,100570.73
2022-08-05T04:28:51.015Z,100568.59
2022-08-05T04:31:40.849Z,100567.86
2022-08-05T04:34:33.603Z,100569.39
2022-08-05T04:37:31.506Z,100565.20
2022-08-05T04:40:35.146Z,100561.47
2022-08-05T04:43:23.811Z,100556.74
2022-08-05T04:46:27.877Z,100556.21
2022-08-05T04:49:17.186Z,100554.43
2022-08-05T04:52:13.501Z,100557.70
2022-08-05T04:55:09.604Z,100563.58
2022-08-05T04:58:05.421Z,100562.65
2022-08-05T05:01:01.343Z,100566.34
2022-08-05T05:03:50.580Z,100565.16
2022-08-05T05:06:44.403Z,100565.16
2022-08-05T05:09:33.964Z,100565.91
2022-08-05T05:12:27.312Z,100563.79
2022-08-05T05:15:17.517Z,100561.21
2022-08-05T05:18:31.441Z,100561.84
2022-08-05T05:21:22.687Z,100564.84
2022-08-05T05:24:17.706Z,100568.47
2022-08-05T05:27:08.424Z,100572.52
2022-08-05T05:30:04.100Z,100580.54
2022-08-05T05:32:53.891Z,100585.55
2022-08-05T05:35:43.004Z,100584.27
2022-08-05T05:38:33.402Z,100580.94
2022-08-05T05:41:22.255Z,100580.73
2022-08-05T05:44:36.078Z,100589.92
2022-08-05T05:47:30.576Z,100589.61
2022-08-05T05:50:30.966Z,100591.40
2022-08-05T05:53:21.235Z,100590.58
2022-08-05T05:56:11.462Z,100588.33
2022-08-05T05:59:03.275Z,100586.02
2022-08-05T06:01:57.235Z,100585.27
2022-08-05T06:04:49.278Z,100579.27
2022-08-05T06:07:42.945Z,100581.33
2022-08-05T06:10:52.844Z,100580.50
2022-08-05T06:13:50.486Z,100582.14
2022-08-05T06:16:42.904Z,100579.55
2022-08-05T06:19:35.578Z,100577.43
2022-08-05T06:22:26.270Z,100579.61
2022-08-05T06:25:59.302Z,100577.60
2022-08-05T06:28:24.021Z,100577.30
2022-08-05T06:31:17.648Z,100580.04
2022-08-05T06:34:08.910Z,100576.29
2022-08-05T06:36:58.743Z,100574.66
2022-08-05T06:39:48.801Z,100570.78
2022-08-05T06:42:39.950Z,100571.98
2022-08-05T06:46:02.844Z,100574.05
2022-08-05T06:48:56.418Z,100564.63
2022-08-05T06:51:46.979Z,100566.19
2022-08-05T06:54:36.052Z,100563.16
2022-08-05T06:57:57.340Z,100554.95
2022-08-05T07:00:33.883Z,100551.84
2022-08-05T07:03:32.448Z,100551.15
2022-08-05T07:06:22.863Z,100552.69
2022-08-05T07:09:11.827Z,100548.35
2022-08-05T07:12:03.080Z,100555.02
2022-08-05T07:15:12.436Z,100554.91
2022-08-05T07:18:29.061Z,100556.11
2022-08-05T07:21:11.586Z,100549.00
2022-08-05T07:24:01.313Z,100548.29
2022-08-05T07:26:51.328Z,100543.54
2022-08-05T07:30:22.884Z,100545.88
2022-08-05T07:32:39.817Z,100546.98
2022-08-05T07:36:04.264Z,100551.13
2022-08-05T07:38:33.445Z,100545.19
2022-08-05T07:42:14.039Z,100547.13
2022-08-05T07:44:36.639Z,100545.72
2022-08-05T07:47:25.749Z,100544.41
2022-08-05T07:50:16.629Z,100546.64
2022-08-05T07:53:08.606Z,100546.04
2022-08-05T07:56:06.596Z,100543.11
2022-08-05T07:59:11.189Z,100537.27
2022-08-05T08:02:03.358Z,100533.91
2022-08-05T08:04:56.250Z,100535.04
2022-08-05T08:08:00.274Z,100537.00
2022-08-05T08:10:49.605Z,100539.68
2022-08-05T08:13:49.396Z,100537.92
2022-08-05T08:16:53.518Z,100540.10
2022-08-05T08:20:43.615Z,100538.73
2022-08-05T08:22:52.898Z,100539.98
2022-08-05T08:25:59.929Z,100533.33
2022-08-05T08:28:59.455Z,100534.44
2022-08-05T08:31:51.949Z,100536.61
2022-08-05T08:34:41.166Z,100541.23
2022-08-05T08:37:31.028Z,100543.59
2022-08-05T08:40:28.714Z,100539.44
2022-08-05T08:45:22.360Z,100537.60
2022-08-05T08:46:31.889Z,100534.84
2022-08-05T08:50:05.841Z,100532.34
2022-08-05T08:52:34.451Z,100534.20
2022-08-05T08:56:02.913Z,100530.77
2022-08-05T08:58:44.037Z,100531.31
2022-08-05T09:01:42.652Z,100528.96
2022-08-05T09:04:33.289Z,100525.45
2022-08-05T09:07:55.996Z,100530.13
2022-08-05T09:10:46.851Z,100525.14
2022-08-05T09:14:01.089Z,100517.26
2022-08-05T09:16:48.700Z,100518.61
2022-08-05T09:20:01.522Z,100520.79
2022-08-05T09:23:19.568Z,100522.60
2022-08-05T09:26:11.079Z,100522.44
2022-08-05T09:29:09.544Z,100517.83
2022-08-05T09:32:40.057Z,100519.41
2022-08-05T09:35:26.757Z,100512.77
2022-08-05T09:38:27.593Z,100512.13
2022-08-05T09:41:18.677Z,100504.42
2022-08-05T09:44:07.909Z,100506.52
2022-08-05T09:47:10.389Z,100499.73
2022-08-05T09:50:06.233Z,100498.54
2022-08-05T09:52:58.720Z,100496.74
2022-08-05T09:55:56.108Z,100495.83
2022-08-05T09:59:00.935Z,100492.95
2022-08-05T10:01:47.930Z,100493.79
2022-08-05T10:04:47.880Z,100493.45
2022-08-05T10:08:36.107Z,100489.44
2022-08-05T10:10:59.086Z,100485.83
2022-08-05T10:13:49.340Z,100482.05
2022-08-05T10:16:41.892Z,100483.35
2022-08-05T10:20:04.447Z,100475.32
2022-08-05T10:22:51.875Z,100464.36
2022-08-05T10:25:41.818Z,100460.23
2022-08-05T10:28:36.610Z,100461.43
2022-08-05T10:32:51.473Z,100455.66
2022-08-05T10:34:36.059Z,100457.13
2022-08-05T10:37:40.073Z,100454.56
2022-08-05T10:40:38.976Z,100454.73
2022-08-05T10:43:42.610Z,100457.16
2022-08-05T10:46:46.407Z,100452.11
2022-08-05T10:50:31.660Z,100446.80
2022-08-05T10:53:34.004Z,100444.54
2022-08-05T10:56:28.739Z,100445.55
2022-08-05T11:00:03.553Z,100441.27
2022-08-05T11:02:37.550Z,100439.52
2022-08-05T11:05:31.673Z,100431.55
2022-08-05T11:08:34.305Z,100425.38
2022-08-05T11:11:52.095Z,100419.14
2022-08-05T11:17:59.813Z,100413.03
2022-08-05T11:20:50.897Z,100413.96
2022-08-05T11:24:04.139Z,100415.85
2022-08-05T11:27:51.014Z,100412.38
2022-08-05T11:31:12.016Z,100410.27
2022-08-05T11:34:36.871Z,100407.58
2022-08-05T11:38:29.411Z,100403.86
2022-08-05T11:41:56.235Z,100407.33
2022-08-05T11:44:52.865Z,100405.99
2022-08-05T11:47:48.997Z,100402.38
2022-08-05T11:50:41.287Z,100402.45
2022-08-05T11:53:33.747Z,100402.05
2022-08-05T11:56:50.414Z,100407.84
2022-08-05T11:59:49.782Z,100408.56
2022-08-05T12:02:39.998Z,100407.05
2022-08-05T12:05:36.460Z,100403.39
2022-08-05T12:08:22.330Z,100400.23
2022-08-05T12:11:20.523Z,100397.75
2022-08-05T12:14:10.215Z,100388.30
2022-08-05T12:18:00.708Z,100387.88
2022-08-05T12:20:25.399Z,100385.61
2022-08-05T12:23:17.648Z,100385.39
2022-08-05T12:26:09.297Z,100381.86
2022-08-05T12:28:58.104Z,100375.30
2022-08-05T12:31:53.218Z,100372.80
2022-08-05T12:34:43.850Z,100369.59
2022-08-05T12:37:38.288Z,100364.84
2022-08-05T12:40:30.057Z,100362.41
2022-08-05T12:43:21.077Z,100354.24
2022-08-05T12:46:03.312Z,100353.79
2022-08-05T12:49:13.442Z,100353.29
2022-08-05T12:52:12.355Z,100354.05
2022-08-05T12:55:21.759Z,100359.92
2022-08-05T12:58:48.951Z,100357.33
2022-08-05T13:02:00.556Z,100349.51
2022-08-05T13:04:52.594Z,100347.63
2022-08-05T13:08:01.602Z,100344.73
2022-08-05T13:10:51.594Z,100339.13
2022-08-05T13:14:05.714Z,100339.47
2022-08-05T13:16:56.643Z,100339.67
2022-08-05T13:20:00.228Z,100338.75
2022-08-05T13:22:52.168Z,100334.92
2022-08-05T13:25:58.607Z,100332.85
2022-08-05T13:28:48.828Z,100328.67
2022-08-05T13:32:04.569Z,100329.31
2022-08-05T13:34:52.617Z,100320.95
2022-08-05T13:37:41.653Z,100321.70
2022-08-05T13:40:51.880Z,100320.98
2022-08-05T13:43:44.791Z,100317.41
2022-08-05T13:47:02.371Z,100311.64
2022-08-05T13:49:53.568Z,100310.56
2022-08-05T13:52:42.260Z,100307.21
2022-08-05T13:55:41.503Z,100301.63
2022-08-05T13:58:38.361Z,100302.03
2022-08-05T14:01:36.384Z,100301.25
2022-08-05T14:05:00.576Z,100302.33
2022-08-05T14:07:59.945Z,100294.23
2022-08-05T14:11:08.063Z,100291.04
2022-08-05T14:14:08.211Z,100286.34
2022-08-05T14:16:57.524Z,100288.60
2022-08-05T14:19:55.983Z,100286.80
2022-08-05T14:22:50.086Z,100284.16
2022-08-05T14:25:32.405Z,100284.34
2022-08-05T14:28:26.970Z,100281.56
2022-08-05T14:31:17.226Z,100277.30
2022-08-05T14:34:18.544Z,100276.92
2022-08-05T14:37:13.353Z,100276.29
2022-08-05T14:40:03.355Z,100280.00
2022-08-05T14:42:53.072Z,100283.66
2022-08-05T14:45:41.729Z,100278.33
2022-08-05T14:48:33.486Z,100280.17
2022-08-05T14:51:23.285Z,100277.36
2022-08-05T14:54:28.082Z,100273.80
2022-08-05T14:57:19.256Z,100272.56
2022-08-05T15:00:11.564Z,100277.81
2022-08-05T15:03:06.820Z,100275.05
2022-08-05T15:06:08.098Z,100274.42
2022-08-05T15:09:03.653Z,100275.30
2022-08-05T15:11:53.718Z,100273.33
2022-08-05T15:14:49.660Z,100274.45
2022-08-05T15:17:45.582Z,100271.00
2022-08-05T15:20:36.683Z,100268.05
2022-08-05T15:23:25.507Z,100266.55
2022-08-05T15:26:17.010Z,100269.27
2022-08-05T15:29:21.299Z,100269.95
2022-08-05T15:32:11.217Z,100261.00
2022-08-05T15:35:10.004Z,100257.40
2022-08-05T15:38:09.094Z,100253.54
2022-08-05T15:41:22.398Z,100250.25
2022-08-05T15:44:12.992Z,100251.54
2022-08-05T15:47:03.127Z,100249.95
2022-08-05T15:49:58.743Z,100244.40
2022-08-05T15:52:53.715Z,100242.39
2022-08-05T15:56:02.265Z,100240.36
2022-08-05T15:58:53.150Z,100237.16
2022-08-05T16:01:52.867Z,100238.08
2022-08-05T16:04:43.296Z,100237.06
2022-08-05T16:07:36.828Z,100238.50
2022-08-05T16:10:28.787Z,100236.59
2022-08-05T16:13:23.629Z,100239.94
2022-08-05T16:16:14.771Z,100236.88
2022-08-05T16:19:11.660Z,100234.28
2022-08-05T16:22:10.798Z,100239.54
2022-08-05T16:25:05.344Z,100239.33
2022-08-05T16:28:04.975Z,100232.25
2022-08-05T16:30:55.169Z,100231.30
2022-08-05T16:33:45.242Z,100230.38
2022-08-05T16:36:34.513Z,100225.86
2022-08-05T16:40:05.267Z,100223.63
2022-08-05T16:42:35.755Z,100224.36
2022-08-05T16:46:06.703Z,100221.13
2022-08-05T16:48:37.361Z,100227.88
2022-08-05T16:51:30.814Z,100225.45
2022-08-05T16:54:33.167Z,100223.44
2022-08-05T16:57:30.135Z,100224.06
2022-08-05T17:00:37.624Z,100223.17
2022-08-05T17:03:27.097Z,100223.04
2022-08-05T17:06:16.922Z,100223.71
2022-08-05T17:08:58.048Z,100223.00
2022-08-05T17:11:48.761Z,100223.92
2022-08-05T17:14:39.154Z,100225.14
2022-08-05T17:17:42.622Z,100220.45
2022-08-05T17:20:26.726Z,100219.85
2022-08-05T17:24:03.409Z,100217.17
2022-08-05T17:26:23.635Z,100221.89
2022-08-05T17:29:12.479Z,100223.33
2022-08-05T17:32:02.437Z,100224.52
2022-08-05T17:34:51.434Z,100225.02
2022-08-05T17:37:45.409Z,100223.23
2022-08-05T17:40:37.176Z,100227.42
2022-08-05T17:43:50.670Z,100230.88
2022-08-05T17:46:19.771Z,100231.30
2022-08-05T17:49:09.822Z,100233.73
2022-08-05T17:51:58.769Z,100236.41
2022-08-05T17:54:52.191Z,100235.36
2022-08-05T17:57:43.558Z,100233.98
2022-08-05T18:00:40.908Z,100235.18
2022-08-05T18:03:58.931Z,100235.02
2022-08-05T18:06:52.655Z,100235.73
2022-08-05T18:09:58.860Z,100237.88
2022-08-05T18:12:31.517Z,100237.42
2022-08-05T18:15:23.780Z,100236.23
2022-08-05T18:18:13.372Z,100241.29
2022-08-05T18:21:02.603Z,100238.64
2022-08-05T18:23:53.636Z,100242.92
2022-08-05T18:26:43.829Z,100248.11
2022-08-05T18:29:40.950Z,100248.98
2022-08-05T18:32:30.701Z,100248.63
2022-08-05T18:35:28.273Z,100249.20
2022-08-05T18:38:26.201Z,100249.02
2022-08-05T18:41:56.591Z,100247.14
2022-08-05T18:44:35.064Z,100246.96
2022-08-05T18:47:26.818Z,100243.86
2022-08-05T18:50:42.393Z,100238.77
2022-08-05T18:53:35.033Z,100235.25
2022-08-05T18:56:34.817Z,100236.19
2022-08-05T18:59:43.183Z,100238.61
2022-08-05T19:02:34.230Z,100239.05
2022-08-05T19:06:12.600Z,100239.59
2022-08-05T19:08:35.005Z,100238.08
2022-08-05T19:11:28.619Z,100237.48
2022-08-05T19:14:38.043Z,100241.17
2022-08-05T19:18:08.050Z,100245.00
2022-08-05T19:20:47.005Z,100243.21
2022-08-05T19:24:07.162Z,100240.98
2022-08-05T19:26:55.443Z,100239.41
2022-08-05T19:29:44.547Z,100238.45
2022-08-05T19:32:41.850Z,100239.88
2022-08-05T19:35:56.736Z,100241.08
2022-08-05T19:38:40.917Z,100245.23
2022-08-05T19:41:58.337Z,100248.14
2022-08-05T19:44:45.342Z,100247.11
2022-08-05T19:47:40.174Z,100244.48
2022-08-05T19:50:30.671Z,100243.96
2022-08-05T19:54:05.380Z,100248.49
2022-08-05T19:56:32.668Z,100247.13
2022-08-05T19:59:56.020Z,100247.54
2022-08-05T20:02:36.272Z,100248.86
2022-08-05T20:05:25.851Z,100253.42
2022-08-05T20:08:32.363Z,100260.53
2022-08-05T20:11:23.447Z,100259.54
2022-08-05T20:14:11.922Z,100254.54
2022-08-05T20:17:06.246Z,100256.23
2022-08-05T20:19:57.408Z,100256.88
2022-08-05T20:22:46.822Z,100246.62
2022-08-05T20:25:39.887Z,100242.47
2022-08-05T20:28:29.130Z,100242.39
2022-08-05T20:31:21.706Z,100240.20
2022-08-05T20:34:17.575Z,100238.62
2022-08-05T20:37:24.140Z,100241.59
2022-08-05T20:40:18.672Z,100245.27
2022-08-05T20:43:08.821Z,100241.02
2022-08-05T20:45:57.655Z,100244.97
2022-08-05T20:48:51.183Z,100247.58
2022-08-05T20:51:40.284Z,100252.24
2022-08-05T20:54:20.290Z,100255.00
2022-08-05T20:57:09.506Z,100253.47
2022-08-05T21:00:19.638Z,100252.17
2022-08-05T21:03:16.747Z,100251.73
2022-08-05T21:06:27.781Z,100252.01
2022-08-05T21:09:16.935Z,100250.64
2022-08-05T21:12:10.655Z,100247.08
2022-08-05T21:15:00.377Z,100254.18
2022-08-05T21:17:49.372Z,100258.31
2022-08-05T21:20:39.599Z,100262.95
2022-08-05T21:23:28.702Z,100261.79
2022-08-05T21:26:26.362Z,100261.78
2022-08-05T21:29:18.540Z,100261.58
2022-08-05T21:32:08.402Z,100264.55
2022-08-05T21:35:17.542Z,100262.10
2022-08-05T21:38:08.124Z,100260.70
2022-08-05T21:40:57.272Z,100263.82
2022-08-05T21:43:50.754Z,100263.29
2022-08-05T21:46:50.406Z,100265.84
2022-08-05T21:49:58.770Z,100262.25
2022-08-05T21:52:49.279Z,100263.61
2022-08-05T21:56:01.497Z,100264.85
2022-08-05T21:58:57.223Z,100266.16
2022-08-05T22:01:46.494Z,100266.95
2022-08-05T22:04:35.792Z,100264.39
2022-08-05T22:07:54.218Z,100262.00
2022-08-05T22:10:34.294Z,100264.09
2022-08-05T22:14:19.920Z,100268.23
2022-08-05T22:16:51.905Z,100266.66
2022-08-05T22:20:00.724Z,100268.34
2022-08-05T22:23:17.177Z,100267.02
2022-08-05T22:26:28.429Z,100268.95
2022-08-05T22:29:18.974Z,100267.59
2022-08-05T22:32:17.370Z,100269.27
2022-08-05T22:35:12.788Z,100266.69
2022-08-05T22:38:01.933Z,100261.20
2022-08-05T22:40:55.221Z,100263.48
2022-08-05T22:43:44.497Z,100264.34
2022-08-05T22:46:34.186Z,100264.54
2022-08-05T22:50:22.865Z,100264.48
2022-08-05T22:52:38.058Z,100258.27
2022-08-05T22:55:27.276Z,100253.91
2022-08-05T22:58:28.569Z,100249.81
2022-08-05T23:01:17.507Z,100249.83
2022-08-05T23:04:09.497Z,100253.49
2022-08-05T23:06:59.478Z,100257.64
2022-08-05T23:09:57.806Z,100256.88
2022-08-05T23:12:55.574Z,100249.82
2022-08-05T23:15:45.949Z,100245.55
2022-08-05T23:18:39.082Z,100251.23
2022-08-05T23:21:42.568Z,100247.78
2022-08-05T23:24:36.660Z,100248.96
2022-08-05T23:27:28.943Z,100252.82
2022-08-05T23:30:20.943Z,100251.70
2022-08-05T23:33:25.801Z,100252.90
2022-08-05T23:36:15.378Z,100251.70
2022-08-05T23:39:06.137Z,100257.98
2022-08-05T23:41:56.495Z,100260.52
2022-08-05T23:44:45.615Z,100266.58
2022-08-05T23:47:48.373Z,100265.74
2022-08-05T23:50:40.401Z,100262.83
2022-08-05T23:53:46.997Z,100257.98
2022-08-05T23:56:36.010Z,100254.41
2022-08-05T23:59:27.595Z,100254.48
